Time;durP1;ratioP1;P1;durP2;ratioP2;P2;SDS_P1;SDS_P2;PMS_P1;PMS_P2;Temp;Humidity;BMP_temperature;BMP_pressure;BME280_temperature;BME280_humidity;BME280_pressure;Samples;Min_cycle;Max_cycle;Signal;HPM_P1;HPM_P2
2022/06/28 00:02:22;;;;;;;0.23;0.23;;;15.70;99.90;;;;;;4945721;29;20035;-76
2022/06/28 00:04:47;;;;;;;0.28;0.28;;;15.70;99.90;;;;;;4945445;29;20517;-75
2022/06/28 00:07:14;;;;;;;0.10;0.10;;;15.70;99.90;;;;;;4944036;28;20032;-75
2022/06/28 00:09:40;;;;;;;0.00;0.00;;;15.60;99.90;;;;;;4943981;29;20412;-76
2022/06/28 00:12:06;;;;;;;0.10;0.10;;;15.50;99.90;;;;;;4944527;29;20059;-75
2022/06/28 00:17:15;;;;;;;0.10;0.10;;;15.50;99.90;;;;;;4944109;28;20066;-76
2022/06/28 00:19:41;;;;;;;0.10;0.10;;;15.50;99.90;;;;;;4944102;29;20495;-75
2022/06/28 00:22:07;;;;;;;0.00;0.00;;;15.50;99.90;;;;;;4925241;29;20047;-76
2022/06/28 00:24:32;;;;;;;0.10;0.10;;;15.50;99.90;;;;;;4925260;28;20169;-76
2022/06/28 00:26:58;;;;;;;0.00;0.00;;;15.50;99.90;;;;;;4942839;28;20040;-76
2022/06/28 00:29:24;;;;;;;0.30;0.30;;;15.50;99.90;;;;;;4945361;28;20062;-77
2022/06/28 00:31:50;;;;;;;0.10;0.10;;;15.50;99.90;;;;;;4945210;29;20592;-76
2022/06/28 00:34:16;;;;;;;0.13;0.03;;;15.60;99.90;;;;;;4943845;29;20475;-76
2022/06/28 00:36:42;;;;;;;0.20;0.20;;;15.70;99.90;;;;;;4943659;28;20033;-76
2022/06/28 00:39:07;;;;;;;0.30;0.20;;;15.80;99.90;;;;;;4943743;28;20055;-76
2022/06/28 00:41:34;;;;;;;0.37;0.23;;;15.80;99.90;;;;;;4944334;28;20050;-76
2022/06/28 00:44:00;;;;;;;;;;;16.00;99.90;;;;;;4945436;28;20066;-76
2022/06/28 00:46:26;;;;;;;0.10;0.10;;;16.00;99.90;;;;;;4943120;29;20251;-77
2022/06/28 00:48:52;;;;;;;0.20;0.20;;;16.00;99.90;;;;;;4943056;29;20502;-77
2022/06/28 00:51:17;;;;;;;0.40;0.40;;;16.00;99.90;;;;;;4942769;29;20043;-76
2022/06/28 00:53:43;;;;;;;0.23;0.10;;;16.00;99.90;;;;;;4925806;29;20175;-76
2022/06/28 00:56:09;;;;;;;0.00;0.00;;;16.00;99.90;;;;;;4946116;28;20041;-76
2022/06/28 00:58:35;;;;;;;0.20;0.20;;;16.00;99.90;;;;;;4943763;29;20068;-76
2022/06/28 01:01:01;;;;;;;0.60;0.60;;;16.00;99.90;;;;;;4942415;28;20063;-76
2022/06/28 01:03:27;;;;;;;0.20;0.20;;;16.00;99.90;;;;;;4943377;29;20396;-77
2022/06/28 01:05:53;;;;;;;0.00;0.00;;;16.00;99.90;;;;;;4943366;29;20051;-77
2022/06/28 01:08:19;;;;;;;0.00;0.00;;;16.00;99.90;;;;;;4944765;29;20545;-77
2022/06/28 01:10:46;;;;;;;0.20;0.20;;;16.00;99.90;;;;;;4943466;28;20314;-77
2022/06/28 01:13:12;;;;;;;1.65;0.63;;;16.00;99.90;;;;;;4943166;28;20035;-76
2022/06/28 01:15:40;;;;;;;0.20;0.20;;;16.00;99.90;;;;;;4942936;28;20130;-76
2022/06/28 01:18:08;;;;;;;0.05;0.05;;;16.00;99.90;;;;;;4943229;29;20032;-76
2022/06/28 01:20:34;;;;;;;0.25;0.25;;;16.00;99.90;;;;;;4944671;29;20086;-76
2022/06/28 01:23:00;;;;;;;0.00;0.00;;;16.00;99.90;;;;;;4943432;28;20042;-77
2022/06/28 01:25:27;;;;;;;0.40;0.13;;;15.90;99.90;;;;;;4943052;28;20038;-76
2022/06/28 01:27:54;;;;;;;0.10;0.10;;;15.90;99.90;;;;;;4941793;28;20423;-76
2022/06/28 01:30:21;;;;;;;0.10;0.10;;;15.80;99.90;;;;;;4941555;28;20035;-76
2022/06/28 01:32:47;;;;;;;0.20;0.20;;;15.80;99.90;;;;;;4938279;29;20050;-77
2022/06/28 01:35:13;;;;;;;0.00;0.00;;;15.60;99.90;;;;;;4945054;28;20094;-76
2022/06/28 01:37:38;;;;;;;0.00;0.00;;;15.60;99.90;;;;;;4942672;29;20309;-76
2022/06/28 01:40:06;;;;;;;0.03;0.03;;;15.60;99.90;;;;;;4937526;28;20112;-76
2022/06/28 01:42:32;;;;;;;0.08;0.08;;;15.50;99.90;;;;;;4942776;29;20122;-76
2022/06/28 01:44:59;;;;;;;0.10;0.10;;;15.40;99.90;;;;;;4942578;28;20122;-76
2022/06/28 01:47:29;;;;;;;0.00;0.00;;;15.40;99.90;;;;;;4939431;28;20039;-78
2022/06/28 01:49:55;;;;;;;0.00;0.00;;;15.40;99.90;;;;;;4945051;29;20073;-75
2022/06/28 01:52:21;;;;;;;0.00;0.00;;;15.40;99.90;;;;;;4943678;28;20587;-75
2022/06/28 01:54:47;;;;;;;0.00;0.00;;;15.40;99.90;;;;;;4927103;29;20113;-76
2022/06/28 01:57:14;;;;;;;0.00;0.00;;;15.50;99.90;;;;;;4944057;29;20163;-80
2022/06/28 01:59:40;;;;;;;0.10;0.10;;;15.40;99.90;;;;;;4942470;28;20035;-81
2022/06/28 02:02:07;;;;;;;0.10;0.10;;;15.40;99.90;;;;;;4943861;28;20055;-81
2022/06/28 02:04:33;;;;;;;0.10;0.10;;;15.30;99.90;;;;;;4942545;28;20098;-81
2022/06/28 02:06:59;;;;;;;0.00;0.00;;;15.30;99.90;;;;;;4942814;28;20117;-81
2022/06/28 02:09:25;;;;;;;0.35;0.35;;;15.20;99.90;;;;;;4942654;28;20035;-81
2022/06/28 02:11:52;;;;;;;0.03;0.03;;;15.20;99.90;;;;;;4943363;28;20039;-80
2022/06/28 02:14:17;;;;;;;;;;;15.10;99.90;;;;;;4946877;29;20050;-81
2022/06/28 02:16:44;;;;;;;0.10;0.10;;;15.00;99.90;;;;;;4920382;29;19914;-80
2022/06/28 02:19:09;;;;;;;0.20;0.20;;;15.00;99.90;;;;;;4943771;29;20559;-80
2022/06/28 02:21:43;;;;;;;0.08;0.08;;;14.90;99.90;;;;;;4942797;29;20122;-80
2022/06/28 02:24:10;;;;;;;0.47;0.45;;;14.80;99.90;;;;;;4941116;28;20105;-81
2022/06/28 02:26:36;;;;;;;;;;;14.70;99.90;;;;;;4943889;29;20038;-80
2022/06/28 02:29:03;;;;;;;14.80;2.40;;;14.70;99.90;;;;;;4944712;29;19914;-80
2022/06/28 02:31:29;;;;;;;0.32;0.32;;;14.60;99.90;;;;;;4940969;28;20039;-80
2022/06/28 02:33:56;;;;;;;0.73;0.63;;;14.60;99.90;;;;;;4941930;28;20411;-81
2022/06/28 02:41:46;;;;;;;0.10;0.10;;;14.50;99.90;;;;;;4941650;29;20031;-82
2022/06/28 02:44:12;;;;;;;0.20;0.20;;;14.40;99.90;;;;;;4944461;28;20086;-81
2022/06/28 02:46:38;;;;;;;0.10;0.10;;;14.40;99.90;;;;;;4942072;29;20039;-82
2022/06/28 02:49:04;;;;;;;0.47;0.47;;;14.40;99.90;;;;;;4941574;28;20536;-81
2022/06/28 02:51:30;;;;;;;0.20;0.20;;;14.40;99.90;;;;;;4943961;28;20050;-81
2022/06/28 02:53:55;;;;;;;0.00;0.00;;;14.40;99.90;;;;;;4945356;28;20118;-81
2022/06/28 02:56:22;;;;;;;0.08;0.08;;;14.40;99.90;;;;;;4930905;29;20030;-81
2022/06/28 02:58:47;;;;;;;0.10;0.10;;;14.40;99.90;;;;;;4948061;29;20031;-81
2022/06/28 03:01:14;;;;;;;0.20;0.20;;;14.40;99.90;;;;;;4945056;29;20522;-84
2022/06/28 03:03:40;;;;;;;0.20;0.20;;;14.30;99.90;;;;;;4945518;28;20035;-83
2022/06/28 03:06:06;;;;;;;32.22;0.80;;;14.30;99.90;;;;;;4945914;28;20043;-83
2022/06/28 03:08:32;;;;;;;0.28;0.28;;;14.30;99.90;;;;;;4931660;28;20031;-82
2022/06/28 03:10:58;;;;;;;0.10;0.10;;;14.30;99.90;;;;;;4947272;28;20036;-84
2022/06/28 03:13:24;;;;;;;1.35;0.82;;;14.20;99.90;;;;;;4945528;28;20046;-82
2022/06/28 03:15:50;;;;;;;1.88;0.65;;;14.20;99.90;;;;;;4946393;28;20046;-82
2022/06/28 03:18:16;;;;;;;0.45;0.45;;;14.10;99.90;;;;;;4945261;29;20034;-83
2022/06/28 03:20:42;;;;;;;0.10;0.10;;;14.10;99.90;;;;;;4946732;29;20074;-81
2022/06/28 03:23:08;;;;;;;0.10;0.10;;;14.20;99.90;;;;;;4948558;29;20101;-83
2022/06/28 03:25:34;;;;;;;0.10;0.10;;;14.10;99.90;;;;;;4944246;29;20066;-84
2022/06/28 03:28:00;;;;;;;0.00;0.00;;;14.10;99.90;;;;;;4929077;29;20043;-82
2022/06/28 03:30:26;;;;;;;0.10;0.10;;;14.00;99.90;;;;;;4944088;29;20478;-81
2022/06/28 03:32:51;;;;;;;0.17;0.13;;;14.00;99.90;;;;;;4944057;28;20023;-81
2022/06/28 03:35:17;;;;;;;0.10;0.10;;;14.00;99.90;;;;;;4948407;29;20035;-82
2022/06/28 03:37:43;;;;;;;0.10;0.10;;;13.90;99.90;;;;;;4944600;29;20027;-81
2022/06/28 03:40:09;;;;;;;0.15;0.15;;;13.90;99.90;;;;;;4944152;28;20039;-84
2022/06/28 03:42:36;;;;;;;0.20;0.20;;;13.90;99.90;;;;;;4944859;28;20038;-83
2022/06/28 03:45:02;;;;;;;0.10;0.10;;;13.90;99.90;;;;;;4941294;28;20032;-82
2022/06/28 03:47:28;;;;;;;0.00;0.00;;;13.80;99.90;;;;;;4945387;28;20530;-82
2022/06/28 03:49:54;;;;;;;0.32;0.32;;;13.80;99.90;;;;;;4947191;29;20079;-81
2022/06/28 03:52:28;;;;;;;0.77;0.77;;;13.80;99.90;;;;;;4945049;28;20523;-82
2022/06/28 03:54:55;;;;;;;0.10;0.10;;;13.80;99.90;;;;;;4943903;28;20031;-82
2022/06/28 03:57:20;;;;;;;0.25;0.25;;;13.80;99.90;;;;;;4944990;29;20031;-78
2022/06/28 03:59:46;;;;;;;0.20;0.20;;;13.70;99.90;;;;;;4944474;29;20035;-78
2022/06/28 04:02:12;;;;;;;0.10;0.10;;;13.60;99.90;;;;;;4945586;28;20042;-76
2022/06/28 04:04:37;;;;;;;0.15;0.15;;;13.60;99.90;;;;;;4943465;29;20034;-77
2022/06/28 04:07:03;;;;;;;0.00;0.00;;;13.50;99.90;;;;;;4941463;29;20039;-77
2022/06/28 04:09:29;;;;;;;0.30;0.30;;;13.50;99.90;;;;;;4941949;29;20031;-77
2022/06/28 04:11:54;;;;;;;0.00;0.00;;;13.50;99.90;;;;;;4928476;28;20039;-77
2022/06/28 04:14:20;;;;;;;0.95;0.88;;;13.60;99.90;;;;;;4924756;29;20039;-77
2022/06/28 04:16:46;;;;;;;1.08;0.43;;;13.60;99.90;;;;;;4940826;28;20611;-77
2022/06/28 04:19:11;;;;;;;0.10;0.10;;;13.60;99.90;;;;;;4939146;28;20042;-75
2022/06/28 04:21:37;;;;;;;0.00;0.00;;;13.70;99.90;;;;;;4926562;29;20102;-77
2022/06/28 04:24:03;;;;;;;0.00;0.00;;;13.80;99.90;;;;;;4940701;28;20074;-77
2022/06/28 04:26:29;;;;;;;0.00;0.00;;;14.00;99.90;;;;;;4925412;28;20106;-77
2022/06/28 04:28:55;;;;;;;0.05;0.05;;;14.50;99.90;;;;;;4944665;29;20055;-77
2022/06/28 04:31:21;;;;;;;0.43;0.22;;;14.90;99.90;;;;;;4942529;29;20046;-77
2022/06/28 04:33:46;;;;;;;0.20;0.20;;;15.30;99.90;;;;;;4943393;29;20046;-77
2022/06/28 04:36:12;;;;;;;0.17;0.17;;;15.60;99.90;;;;;;4940324;28;20043;-80
2022/06/28 04:38:38;;;;;;;0.00;0.00;;;16.10;99.90;;;;;;4940840;28;20479;-79
2022/06/28 04:41:03;;;;;;;0.10;0.10;;;15.60;99.90;;;;;;4946229;29;20031;-80
2022/06/28 04:43:30;;;;;;;0.10;0.10;;;15.80;99.90;;;;;;4941404;28;20753;-80
2022/06/28 04:45:55;;;;;;;0.32;0.32;;;16.20;99.90;;;;;;4943101;29;20093;-80
2022/06/28 04:48:21;;;;;;;0.20;0.20;;;16.60;99.90;;;;;;4942296;29;20039;-80
2022/06/28 04:50:47;;;;;;;0.20;0.20;;;17.00;99.90;;;;;;4943946;29;20043;-80
2022/06/28 04:53:12;;;;;;;0.03;0.03;;;17.10;99.90;;;;;;4929409;29;20079;-80
2022/06/28 04:55:38;;;;;;;0.30;0.30;;;17.10;99.90;;;;;;4926024;29;20028;-80
2022/06/28 04:58:04;;;;;;;0.00;0.00;;;17.80;99.90;;;;;;4945177;28;20410;-80
2022/06/28 05:00:29;;;;;;;0.10;0.10;;;17.90;99.90;;;;;;4928759;28;20035;-80
2022/06/28 05:02:56;;;;;;;0.17;0.17;;;18.30;99.90;;;;;;4927108;29;20032;-80
2022/06/28 05:05:22;;;;;;;0.00;0.00;;;18.40;99.90;;;;;;4947009;28;20458;-80
2022/06/28 05:07:47;;;;;;;0.00;0.00;;;18.40;99.90;;;;;;4946900;28;20467;-80
2022/06/28 05:10:13;;;;;;;0.10;0.10;;;18.20;99.90;;;;;;4943938;29;20947;-80
2022/06/28 05:12:39;;;;;;;0.00;0.00;;;19.40;99.90;;;;;;4943129;29;20506;-81
2022/06/28 05:15:05;;;;;;;0.27;0.13;;;19.00;99.90;;;;;;4935175;28;20038;-85
2022/06/28 05:17:31;;;;;;;0.10;0.10;;;19.80;99.90;;;;;;4944964;29;20034;-88
2022/06/28 05:19:57;;;;;;;0.00;0.00;;;20.50;99.90;;;;;;4944377;29;20046;-84
2022/06/28 05:22:23;;;;;;;0.00;0.00;;;19.00;99.90;;;;;;4943386;29;20769;-85
2022/06/28 05:24:48;;;;;;;0.10;0.10;;;19.30;99.90;;;;;;4942549;29;20027;-85
2022/06/28 05:27:14;;;;;;;0.00;0.00;;;20.40;99.90;;;;;;4943357;28;20528;-87
2022/06/28 05:29:40;;;;;;;0.00;0.00;;;20.60;99.90;;;;;;4926461;29;20035;-87
2022/06/28 05:32:06;;;;;;;0.77;0.60;;;20.30;98.30;;;;;;4944690;29;20772;-84
2022/06/28 05:34:32;;;;;;;0.00;0.00;;;21.30;94.40;;;;;;4928015;29;20105;-83
2022/06/28 05:36:57;;;;;;;0.00;0.00;;;22.40;90.40;;;;;;4924419;29;20439;-80
2022/06/28 05:39:23;;;;;;;0.00;0.00;;;22.90;84.80;;;;;;4943018;29;20562;-80
2022/06/28 05:41:49;;;;;;;0.30;0.00;;;22.60;80.20;;;;;;4942608;29;20106;-80
2022/06/28 05:44:16;;;;;;;0.00;0.00;;;22.90;81.70;;;;;;4943342;28;20290;-81
2022/06/28 05:46:43;;;;;;;0.10;0.00;;;23.30;76.10;;;;;;4942468;29;20291;-82
2022/06/28 05:49:10;;;;;;;0.00;0.00;;;23.70;78.40;;;;;;4942813;29;20770;-82
2022/06/28 05:51:35;;;;;;;;;;;24.20;73.00;;;;;;4939779;29;20113;-82
2022/06/28 05:54:01;;;;;;;;;;;24.40;73.60;;;;;;4939645;28;19930;-84
2022/06/28 05:56:27;;;;;;;0.00;0.00;;;24.70;66.80;;;;;;4943710;28;19921;-82
2022/06/28 05:58:53;;;;;;;0.15;0.15;;;24.70;68.70;;;;;;4938598;29;20259;-87
2022/06/28 06:01:20;;;;;;;0.00;0.00;;;24.90;66.30;;;;;;4947825;28;20400;-94
2022/06/28 06:03:46;;;;;;;0.00;0.00;;;24.70;65.60;;;;;;4945169;29;20145;-88
2022/06/28 06:06:12;;;;;;;0.00;0.00;;;24.70;65.50;;;;;;4953318;28;21109;-96
2022/06/28 06:08:38;;;;;;;0.10;0.10;;;25.40;63.70;;;;;;4947046;28;20741;-89
2022/06/28 06:11:07;;;;;;;0.00;0.00;;;25.70;64.60;;;;;;4945025;29;20451;-86
2022/06/28 06:13:36;;;;;;;0.00;0.00;;;25.30;63.80;;;;;;4942409;29;20306;-88
2022/06/28 06:16:02;;;;;;;0.00;0.00;;;25.40;63.60;;;;;;4941873;29;20125;-88
2022/06/28 06:18:28;;;;;;;0.10;0.00;;;25.80;64.00;;;;;;4922537;29;20044;-88
2022/06/28 06:20:53;;;;;;;0.13;0.13;;;25.90;65.00;;;;;;4938507;28;20031;-86
2022/06/28 06:23:19;;;;;;;0.43;0.35;;;25.90;67.30;;;;;;4944298;28;20066;-87
2022/06/28 06:25:45;;;;;;;0.00;0.00;;;25.40;64.80;;;;;;4940585;28;21848;-92
2022/06/28 06:28:10;;;;;;;0.00;0.00;;;26.00;63.80;;;;;;4941379;29;20035;-87
2022/06/28 06:30:36;;;;;;;0.05;0.05;;;26.10;63.50;;;;;;4940746;28;20066;-90
2022/06/28 06:33:02;;;;;;;0.10;0.10;;;26.50;62.80;;;;;;4925871;28;20039;-87
2022/06/28 06:35:28;;;;;;;0.00;0.00;;;26.30;61.90;;;;;;4947520;28;20838;-88
2022/06/28 06:38:00;;;;;;;0.00;0.00;;;27.20;61.20;;;;;;4943635;29;20063;-89
2022/06/28 06:40:27;;;;;;;0.20;0.20;;;26.80;61.00;;;;;;4940721;28;20062;-87
2022/06/28 06:42:52;;;;;;;0.00;0.00;;;26.00;61.40;;;;;;4944001;28;20049;-92
2022/06/28 06:45:18;;;;;;;0.10;0.00;;;26.20;61.90;;;;;;4942716;28;20487;-89
2022/06/28 06:47:44;;;;;;;0.00;0.00;;;26.40;60.60;;;;;;4932120;28;20104;-88
2022/06/28 06:50:09;;;;;;;0.00;0.00;;;27.10;60.90;;;;;;4942177;28;20059;-87
2022/06/28 06:52:36;;;;;;;0.00;0.00;;;27.80;61.60;;;;;;4942129;29;20039;-89
2022/06/28 06:55:02;;;;;;;0.00;0.00;;;28.50;60.00;;;;;;4943571;28;20138;-88
2022/06/28 06:57:27;;;;;;;0.10;0.10;;;28.50;57.20;;;;;;4940154;28;20062;-79
2022/06/28 06:59:53;;;;;;;0.00;0.00;;;28.30;58.90;;;;;;4937085;29;20130;-79
2022/06/28 07:02:19;;;;;;;;;;;28.10;55.60;;;;;;4945132;29;20082;-79
2022/06/28 07:04:44;;;;;;;;;;;29.00;57.10;;;;;;4932051;28;19954;-79
2022/06/28 07:07:10;;;;;;;;;;;28.90;55.60;;;;;;4928637;28;19919;-79
2022/06/28 07:09:35;;;;;;;;;;;28.90;55.90;;;;;;4927915;29;20374;-79
2022/06/28 07:12:01;;;;;;;;;;;29.40;55.80;;;;;;4927809;29;20190;-80
2022/06/28 07:14:26;;;;;;;;;;;29.90;55.00;;;;;;4910915;29;19970;-80
2022/06/28 07:16:52;;;;;;;0.00;0.00;;;29.10;53.80;;;;;;4920792;29;19914;-79
2022/06/28 07:19:17;;;;;;;;;;;30.00;53.70;;;;;;4940908;28;20030;-79
2022/06/28 07:21:44;;;;;;;0.00;0.00;;;30.80;52.80;;;;;;4932473;29;19934;-79
2022/06/28 07:24:11;;;;;;;0.10;0.10;;;30.00;53.30;;;;;;4922510;29;20263;-79
2022/06/28 07:26:36;;;;;;;0.10;0.10;;;30.60;52.30;;;;;;4932869;28;20106;-79
2022/06/28 07:29:03;;;;;;;;;;;29.90;53.50;;;;;;4942918;29;20131;-79
2022/06/28 07:31:30;;;;;;;0.45;0.20;;;31.10;52.10;;;;;;4940779;29;20028;-79
2022/06/28 07:33:57;;;;;;;0.00;0.00;;;30.40;53.10;;;;;;4940701;29;20039;-79
2022/06/28 07:36:23;;;;;;;0.00;0.00;;;31.80;50.90;;;;;;4926031;28;20027;-79
2022/06/28 07:38:48;;;;;;;0.00;0.00;;;32.10;51.80;;;;;;4942027;28;20499;-79
2022/06/28 07:41:14;;;;;;;2.40;0.65;;;32.20;51.40;;;;;;4930562;29;20515;-79
2022/06/28 07:43:40;;;;;;;0.00;0.00;;;32.00;50.00;;;;;;4935972;28;20040;-79
2022/06/28 07:46:06;;;;;;;0.00;0.00;;;32.80;51.10;;;;;;4927828;29;20039;-80
2022/06/28 07:48:32;;;;;;;0.13;0.13;;;32.50;49.20;;;;;;4944389;28;20082;-79
2022/06/28 07:53:42;;;;;;;0.00;0.00;;;32.80;48.40;;;;;;4945308;28;20535;-79
2022/06/28 07:56:08;;;;;;;0.43;0.43;;;32.00;46.90;;;;;;4946965;29;20295;-79
2022/06/28 07:58:34;;;;;;;0.10;0.10;;;32.90;50.40;;;;;;4944080;29;20077;-80
2022/06/28 08:00:59;;;;;;;0.00;0.00;;;33.30;49.00;;;;;;4944339;29;20047;-80
2022/06/28 08:03:25;;;;;;;1.13;0.52;;;33.60;50.30;;;;;;4943710;28;20037;-79
2022/06/28 08:05:51;;;;;;;0.00;0.00;;;34.20;50.80;;;;;;4927280;29;20842;-80
2022/06/28 08:08:17;;;;;;;0.00;0.00;;;34.00;49.50;;;;;;4946867;28;20110;-80
2022/06/28 08:10:42;;;;;;;0.00;0.00;;;34.80;48.00;;;;;;4921854;29;20130;-82
2022/06/28 08:13:09;;;;;;;0.03;0.03;;;33.60;46.50;;;;;;4937624;28;20051;-81
2022/06/28 08:15:34;;;;;;;0.43;0.30;;;34.10;46.20;;;;;;4941615;28;20035;-81
2022/06/28 08:18:00;;;;;;;0.03;0.03;;;33.70;46.30;;;;;;4941928;28;20050;-81
2022/06/28 08:20:29;;;;;;;0.65;0.15;;;34.70;46.60;;;;;;4938614;28;20027;-80
2022/06/28 08:22:55;;;;;;;0.00;0.00;;;34.50;48.30;;;;;;4921786;29;20031;-80
2022/06/28 08:25:20;;;;;;;14.05;0.80;;;34.80;46.90;;;;;;4937109;29;20094;-81
2022/06/28 08:27:46;;;;;;;0.00;0.00;;;34.20;47.30;;;;;;4939184;28;20035;-81
2022/06/28 08:30:12;;;;;;;0.28;0.28;;;35.60;46.10;;;;;;4922334;29;20023;-80
2022/06/28 08:32:38;;;;;;;0.10;0.10;;;36.30;45.90;;;;;;4939656;29;20027;-82
2022/06/28 08:35:04;;;;;;;0.47;0.38;;;36.00;45.30;;;;;;4937242;28;20031;-80
2022/06/28 08:37:30;;;;;;;0.00;0.00;;;35.50;44.20;;;;;;4935955;28;20039;-81
2022/06/28 08:39:55;;;;;;;0.00;0.00;;;34.90;46.40;;;;;;4939165;28;20039;-80
2022/06/28 08:42:30;;;;;;;0.17;0.17;;;35.00;45.30;;;;;;4941510;28;20031;-81
2022/06/28 08:45:00;;;;;;;0.08;0.00;;;35.30;45.90;;;;;;4920126;29;20039;-81
2022/06/28 08:47:31;;;;;;;0.55;0.55;;;35.30;46.00;;;;;;4942281;28;20063;-81
2022/06/28 08:50:03;;;;;;;0.00;0.00;;;35.70;46.30;;;;;;4936384;28;20448;-83
2022/06/28 08:52:37;;;;;;;0.00;0.00;;;35.90;42.60;;;;;;4934945;29;20058;-82
2022/06/28 08:55:06;;;;;;;0.52;0.28;;;36.10;44.40;;;;;;4935599;28;20522;-78
2022/06/28 08:57:33;;;;;;;0.00;0.00;;;34.90;45.40;;;;;;4940040;29;20035;-84
2022/06/28 08:59:59;;;;;;;0.00;0.00;;;36.00;44.30;;;;;;4942309;28;20035;-84
2022/06/28 09:02:25;;;;;;;0.20;0.10;;;37.30;45.00;;;;;;4937474;28;20109;-83
2022/06/28 09:04:53;;;;;;;1.65;0.65;;;37.30;44.30;;;;;;4935286;28;20565;-83
2022/06/28 09:07:22;;;;;;;0.30;0.30;;;37.60;43.30;;;;;;4921843;28;20043;-83
2022/06/28 09:09:48;;;;;;;0.00;0.00;;;35.50;42.50;;;;;;4921039;28;20119;-83
2022/06/28 09:12:14;;;;;;;0.00;0.00;;;34.70;44.60;;;;;;4941220;28;20031;-83
2022/06/28 09:14:40;;;;;;;0.00;0.00;;;35.90;46.50;;;;;;4929653;28;20119;-82
2022/06/28 09:17:25;;;;;;;0.47;0.43;;;34.00;43.60;;;;;;4941683;28;20062;-82
2022/06/28 09:19:58;;;;;;;0.00;0.00;;;33.40;50.40;;;;;;4944351;28;20023;-82
2022/06/28 09:22:37;;;;;;;0.00;0.00;;;30.90;51.80;;;;;;4933970;28;20036;-82
2022/06/28 09:25:13;;;;;;;0.43;0.43;;;30.60;52.90;;;;;;4939320;28;20035;-84
2022/06/28 09:27:41;;;;;;;0.35;0.15;;;32.60;54.10;;;;;;4938247;28;20527;-84
2022/06/28 09:30:10;;;;;;;0.00;0.00;;;32.40;49.80;;;;;;4922874;28;20078;-85
2022/06/28 09:32:37;;;;;;;0.00;0.00;;;29.70;52.90;;;;;;4941768;28;20055;-84
2022/06/28 09:35:07;;;;;;;0.00;0.00;;;28.40;52.60;;;;;;4942919;28;20434;-84
2022/06/28 09:37:47;;;;;;;0.00;0.00;;;27.80;53.50;;;;;;4941506;28;20126;-85
2022/06/28 09:40:28;;;;;;;0.20;0.20;;;33.00;52.20;;;;;;4937645;28;20065;-85
2022/06/28 09:43:14;;;;;;;0.00;0.00;;;35.90;45.20;;;;;;4938550;28;20050;-85
2022/06/28 09:45:50;;;;;;;0.00;0.00;;;36.80;45.00;;;;;;4941181;28;20027;-85
2022/06/28 09:48:17;;;;;;;0.00;0.00;;;36.30;38.70;;;;;;4942866;28;20047;-85
2022/06/28 09:50:43;;;;;;;0.05;0.05;;;35.00;39.50;;;;;;4940949;28;20051;-85
2022/06/28 09:53:10;;;;;;;0.00;0.00;;;35.30;37.40;;;;;;4931297;28;20047;-85
2022/06/28 09:55:36;;;;;;;0.25;0.25;;;36.90;38.50;;;;;;4930647;28;20216;-84
2022/06/28 09:58:02;;;;;;;0.00;0.00;;;36.20;35.80;;;;;;4929038;28;20063;-85
2022/06/28 10:00:29;;;;;;;0.00;0.00;;;35.00;36.50;;;;;;4941813;28;20035;-85
2022/06/28 10:02:58;;;;;;;0.00;0.00;;;34.90;37.70;;;;;;4926019;28;25066;-85
2022/06/28 10:05:24;;;;;;;0.00;0.00;;;37.30;39.80;;;;;;4943720;28;20209;-84
2022/06/28 10:07:50;;;;;;;0.03;0.03;;;37.00;40.10;;;;;;4940706;28;20042;-85
2022/06/28 10:10:17;;;;;;;0.43;0.20;;;37.40;36.60;;;;;;4937603;28;20031;-84
2022/06/28 10:15:33;;;;;;;0.20;0.17;;;37.00;38.50;;;;;;4934418;28;20081;-83
2022/06/28 10:18:14;;;;;;;0.00;0.00;;;37.50;39.10;;;;;;4925811;29;20054;-83
2022/06/28 10:20:43;;;;;;;0.00;0.00;;;37.70;39.20;;;;;;4941769;28;20718;-84
2022/06/28 10:23:36;;;;;;;2.40;0.55;;;37.10;37.50;;;;;;4919330;29;20050;-84
2022/06/28 10:26:14;;;;;;;0.00;0.00;;;36.00;37.10;;;;;;4943400;28;20023;-83
2022/06/28 10:28:39;;;;;;;0.00;0.00;;;35.10;38.40;;;;;;4940578;28;20078;-83
2022/06/28 10:31:23;;;;;;;0.00;0.00;;;34.60;36.60;;;;;;4940275;28;20126;-83
2022/06/28 10:33:51;;;;;;;0.52;0.20;;;35.50;37.50;;;;;;4939791;28;20055;-83
2022/06/28 10:36:19;;;;;;;0.05;0.03;;;35.30;37.80;;;;;;4942100;28;20513;-83
2022/06/28 10:39:07;;;;;;;0.35;0.20;;;34.60;40.50;;;;;;4941271;28;20047;-84
2022/06/28 10:41:42;;;;;;;0.00;0.00;;;34.50;38.80;;;;;;4938254;28;20036;-84
2022/06/28 10:44:23;;;;;;;0.00;0.00;;;33.00;38.90;;;;;;4932326;28;20069;-84
2022/06/28 10:47:05;;;;;;;0.20;0.20;;;31.50;40.30;;;;;;4927577;28;20032;-84
2022/06/28 10:49:46;;;;;;;0.00;0.00;;;30.40;44.10;;;;;;4930478;28;20106;-83
2022/06/28 10:52:22;;;;;;;2.72;1.10;;;30.10;47.50;;;;;;4930264;28;20055;-84
2022/06/28 10:54:56;;;;;;;0.00;0.00;;;28.80;43.30;;;;;;4935573;28;20621;-83
2022/06/28 10:57:26;;;;;;;0.08;0.08;;;28.30;46.90;;;;;;4933405;28;20038;-95
2022/06/28 10:59:57;;;;;;;0.00;0.00;;;29.20;50.90;;;;;;4946241;28;20126;-96
2022/06/28 11:02:24;;;;;;;0.15;0.15;;;28.60;49.50;;;;;;4947795;28;20031;-96
2022/06/28 11:05:09;;;;;;;0.00;0.00;;;28.30;52.40;;;;;;4930973;29;20036;-96
2022/06/28 11:07:37;;;;;;;1.50;0.10;;;27.70;50.70;;;;;;4933911;29;20027;-96
2022/06/28 11:10:09;;;;;;;0.10;0.10;;;26.60;46.70;;;;;;4937365;29;20059;-96
2022/06/28 11:12:37;;;;;;;0.10;0.10;;;27.20;51.00;;;;;;4930702;29;20040;-96
2022/06/28 11:15:05;;;;;;;0.00;0.00;;;27.40;53.60;;;;;;4939743;28;20047;-96
2022/06/28 11:17:42;;;;;;;1.75;0.70;;;27.80;56.00;;;;;;4939872;29;20163;-95
2022/06/28 11:20:13;;;;;;;0.00;0.00;;;27.70;55.90;;;;;;4926010;29;20035;-96
2022/06/28 11:22:44;;;;;;;0.00;0.00;;;27.80;55.80;;;;;;4938067;29;20034;-96
2022/06/28 11:25:13;;;;;;;0.20;0.20;;;27.80;55.50;;;;;;4934604;29;20024;-96
2022/06/28 11:27:56;;;;;;;0.00;0.00;;;27.80;55.60;;;;;;4941886;29;20035;-96
2022/06/28 11:30:27;;;;;;;0.25;0.17;;;27.30;53.50;;;;;;4948417;28;20031;-96
2022/06/28 11:32:56;;;;;;;0.00;0.00;;;27.20;57.50;;;;;;4928046;29;20246;-94
2022/06/28 11:35:24;;;;;;;0.00;0.00;;;27.30;55.50;;;;;;4940567;28;20046;-94
2022/06/28 11:37:59;;;;;;;0.00;0.00;;;27.30;57.90;;;;;;4933927;28;20038;-95
2022/06/28 11:40:30;;;;;;;0.00;0.00;;;26.50;53.40;;;;;;4939349;29;20035;-94
2022/06/28 11:43:09;;;;;;;0.10;0.10;;;26.20;57.50;;;;;;4939079;28;20033;-95
2022/06/28 11:45:44;;;;;;;0.00;0.00;;;26.40;56.90;;;;;;4934918;29;20099;-96
2022/06/28 11:48:12;;;;;;;0.00;0.00;;;26.40;58.30;;;;;;4931505;28;20540;-95
2022/06/28 11:51:02;;;;;;;0.00;0.00;;;26.80;57.20;;;;;;4933711;29;20527;-96
2022/06/28 11:53:30;;;;;;;0.00;0.00;;;26.70;58.40;;;;;;4931870;28;20051;-95
2022/06/28 11:55:58;;;;;;;0.22;0.13;;;26.80;56.60;;;;;;4933408;29;20194;-96
2022/06/28 11:58:23;;;;;;;0.00;0.00;;;26.00;51.70;;;;;;4936169;29;20035;-95
2022/06/28 12:01:09;;;;;;;0.07;0.07;;;25.80;51.50;;;;;;4934371;29;20031;-95
2022/06/28 12:03:44;;;;;;;0.28;0.25;;;26.10;56.60;;;;;;4933764;29;20066;-96
2022/06/28 12:06:18;;;;;;;0.00;0.00;;;25.90;56.20;;;;;;4935607;28;20098;-95
2022/06/28 12:08:47;;;;;;;0.00;0.00;;;26.00;56.70;;;;;;4935604;29;20043;-96
2022/06/28 12:11:37;;;;;;;1.77;1.25;;;25.50;53.10;;;;;;4933711;29;20159;-96
2022/06/28 12:14:02;;;;;;;0.13;0.13;;;25.90;55.90;;;;;;4945278;28;20071;-96
2022/06/28 12:16:43;;;;;;;0.00;0.00;;;26.20;57.80;;;;;;4948527;29;20426;-95
2022/06/28 12:19:14;;;;;;;0.70;0.25;;;25.90;53.70;;;;;;4937696;29;20102;-95
2022/06/28 12:22:02;;;;;;;0.10;0.00;;;26.00;57.00;;;;;;4935497;29;20031;-96
2022/06/28 12:24:40;;;;;;;0.00;0.00;;;25.90;54.30;;;;;;4936660;29;20059;-96
2022/06/28 12:27:06;;;;;;;0.32;0.10;;;25.30;52.00;;;;;;4939338;29;20046;-96
2022/06/28 12:29:32;;;;;;;0.17;0.15;;;25.40;59.20;;;;;;4931831;29;20031;-95
2022/06/28 12:31:59;;;;;;;0.28;0.00;;;25.40;54.60;;;;;;4935038;29;20039;-95
2022/06/28 12:34:25;;;;;;;0.00;0.00;;;25.60;56.30;;;;;;4934639;28;20053;-96
2022/06/28 12:36:51;;;;;;;0.00;0.00;;;25.70;57.10;;;;;;4937592;29;20120;-95
2022/06/28 12:39:16;;;;;;;0.52;0.20;;;25.60;54.60;;;;;;4931346;28;20027;-96
2022/06/28 12:41:43;;;;;;;0.00;0.00;;;25.40;53.90;;;;;;4931949;29;20031;-96
2022/06/28 12:44:09;;;;;;;0.00;0.00;;;25.20;54.90;;;;;;4933893;28;20043;-96
2022/06/28 12:46:34;;;;;;;0.55;0.17;;;25.20;58.40;;;;;;4929543;29;20034;-96
2022/06/28 12:49:01;;;;;;;0.00;0.00;;;25.50;58.20;;;;;;4926910;29;20043;-94
2022/06/28 12:51:27;;;;;;;0.43;0.32;;;25.30;58.20;;;;;;4936873;28;20862;-95
2022/06/28 12:53:53;;;;;;;0.00;0.00;;;25.40;59.60;;;;;;4933175;29;20053;-93
2022/06/28 12:56:19;;;;;;;0.05;0.00;;;25.60;61.20;;;;;;4939742;28;20125;-94
2022/06/28 12:58:47;;;;;;;0.00;0.00;;;25.40;59.20;;;;;;4932370;28;20232;-95
2022/06/28 13:01:13;;;;;;;0.50;0.40;;;25.20;59.40;;;;;;4947629;28;20197;-95
2022/06/28 13:03:40;;;;;;;;;;;25.20;60.90;;;;;;4951980;28;20028;-94
2022/06/28 13:06:07;;;;;;;0.40;0.13;;;25.20;63.20;;;;;;4947666;28;19921;-94
2022/06/28 13:08:34;;;;;;;0.00;0.00;;;25.20;62.60;;;;;;4934633;28;20035;-95